sensor_id;sensor_type;location;lat;lon;timestamp;P1;durP1;ratioP1;P2;durP2;ratioP2
76818;SDS011;65772;51.096;17.006;2023-06-01T00:00:50;8.50;;;4.10;;
76818;SDS011;65772;51.096;17.006;2023-06-01T00:03:24;7.90;;;3.80;;
76818;SDS011;65772;51.096;17.006;2023-06-01T00:05:55;7.40;;;4.10;;
76818;SDS011;65772;51.096;17.006;2023-06-01T00:08:25;10.70;;;4.20;;
76818;SDS011;65772;51.096;17.006;2023-06-01T00:10:56;8.90;;;3.90;;
76818;SDS011;65772;51.096;17.006;2023-06-01T00:13:27;7.00;;;3.70;;
76818;SDS011;65772;51.096;17.006;2023-06-01T00:15:57;8.70;;;4.00;;
76818;SDS011;65772;51.096;17.006;2023-06-01T00:18:28;7.60;;;4.10;;
76818;SDS011;65772;51.096;17.006;2023-06-01T00:20:58;7.70;;;4.50;;
76818;SDS011;65772;51.096;17.006;2023-06-01T00:23:29;9.30;;;4.20;;
76818;SDS011;65772;51.096;17.006;2023-06-01T00:26:00;9.50;;;4.00;;
76818;SDS011;65772;51.096;17.006;2023-06-01T00:28:31;6.90;;;3.90;;
76818;SDS011;65772;51.096;17.006;2023-06-01T00:31:02;9.00;;;4.40;;
76818;SDS011;65772;51.096;17.006;2023-06-01T00:33:32;8.80;;;4.30;;
76818;SDS011;65772;51.096;17.006;2023-06-01T00:36:04;6.20;;;3.50;;
76818;SDS011;65772;51.096;17.006;2023-06-01T00:41:04;9.90;;;4.30;;
76818;SDS011;65772;51.096;17.006;2023-06-01T00:43:35;7.50;;;4.00;;
76818;SDS011;65772;51.096;17.006;2023-06-01T00:46:06;8.10;;;4.10;;
76818;SDS011;65772;51.096;17.006;2023-06-01T00:48:37;8.80;;;4.40;;
76818;SDS011;65772;51.096;17.006;2023-06-01T00:51:08;9.20;;;4.30;;
76818;SDS011;65772;51.096;17.006;2023-06-01T00:53:40;9.10;;;4.20;;
76818;SDS011;65772;51.096;17.006;2023-06-01T00:56:11;9.10;;;4.30;;
76818;SDS011;65772;51.096;17.006;2023-06-01T00:58:42;8.50;;;4.00;;
76818;SDS011;65772;51.096;17.006;2023-06-01T01:01:14;8.00;;;4.20;;
76818;SDS011;65772;51.096;17.006;2023-06-01T01:03:48;8.90;;;4.00;;
76818;SDS011;65772;51.096;17.006;2023-06-01T01:09:09;7.80;;;4.20;;
76818;SDS011;65772;51.096;17.006;2023-06-01T01:11:49;8.90;;;4.10;;
76818;SDS011;65772;51.096;17.006;2023-06-01T01:14:28;8.00;;;3.90;;
76818;SDS011;65772;51.096;17.006;2023-06-01T01:17:07;8.90;;;4.30;;
76818;SDS011;65772;51.096;17.006;2023-06-01T01:19:48;14.70;;;3.60;;
76818;SDS011;65772;51.096;17.006;2023-06-01T01:22:25;7.30;;;4.00;;
76818;SDS011;65772;51.096;17.006;2023-06-01T01:25:09;6.80;;;4.00;;
76818;SDS011;65772;51.096;17.006;2023-06-01T01:31:04;8.20;;;4.40;;
76818;SDS011;65772;51.096;17.006;2023-06-01T01:33:38;9.50;;;4.40;;
76818;SDS011;65772;51.096;17.006;2023-06-01T01:36:10;8.30;;;4.20;;
76818;SDS011;65772;51.096;17.006;2023-06-01T01:38:41;7.50;;;4.50;;
76818;SDS011;65772;51.096;17.006;2023-06-01T01:41:11;10.60;;;4.30;;
76818;SDS011;65772;51.096;17.006;2023-06-01T01:43:42;10.20;;;4.40;;
76818;SDS011;65772;51.096;17.006;2023-06-01T01:46:17;7.30;;;4.20;;
76818;SDS011;65772;51.096;17.006;2023-06-01T01:48:58;10.30;;;4.50;;
76818;SDS011;65772;51.096;17.006;2023-06-01T01:51:49;8.40;;;4.20;;
76818;SDS011;65772;51.096;17.006;2023-06-01T01:54:22;7.20;;;4.20;;
76818;SDS011;65772;51.096;17.006;2023-06-01T01:56:58;8.90;;;4.20;;
76818;SDS011;65772;51.096;17.006;2023-06-01T01:59:30;8.60;;;4.90;;
76818;SDS011;65772;51.096;17.006;2023-06-01T02:02:01;9.20;;;4.20;;
76818;SDS011;65772;51.096;17.006;2023-06-01T02:04:32;8.00;;;4.40;;
76818;SDS011;65772;51.096;17.006;2023-06-01T02:07:06;7.40;;;4.10;;
76818;SDS011;65772;51.096;17.006;2023-06-01T02:09:37;8.70;;;3.90;;
76818;SDS011;65772;51.096;17.006;2023-06-01T02:12:10;7.60;;;4.10;;
76818;SDS011;65772;51.096;17.006;2023-06-01T02:14:41;8.30;;;4.30;;
76818;SDS011;65772;51.096;17.006;2023-06-01T02:17:11;10.70;;;3.90;;
76818;SDS011;65772;51.096;17.006;2023-06-01T02:22:12;7.20;;;3.90;;
76818;SDS011;65772;51.096;17.006;2023-06-01T02:24:43;8.70;;;4.00;;
76818;SDS011;65772;51.096;17.006;2023-06-01T02:27:14;9.80;;;4.40;;
76818;SDS011;65772;51.096;17.006;2023-06-01T02:29:44;9.70;;;4.40;;
76818;SDS011;65772;51.096;17.006;2023-06-01T02:32:15;10.30;;;5.40;;
76818;SDS011;65772;51.096;17.006;2023-06-01T02:34:45;9.00;;;4.40;;
76818;SDS011;65772;51.096;17.006;2023-06-01T02:37:16;9.40;;;4.20;;
76818;SDS011;65772;51.096;17.006;2023-06-01T02:39:47;7.70;;;4.10;;
76818;SDS011;65772;51.096;17.006;2023-06-01T02:42:17;11.50;;;4.70;;
76818;SDS011;65772;51.096;17.006;2023-06-01T02:44:48;8.20;;;4.50;;
76818;SDS011;65772;51.096;17.006;2023-06-01T02:47:19;8.20;;;4.20;;
76818;SDS011;65772;51.096;17.006;2023-06-01T02:49:49;10.00;;;4.40;;
76818;SDS011;65772;51.096;17.006;2023-06-01T02:52:20;6.30;;;3.90;;
76818;SDS011;65772;51.096;17.006;2023-06-01T02:54:50;9.90;;;3.90;;
76818;SDS011;65772;51.096;17.006;2023-06-01T02:57:47;10.30;;;4.30;;
76818;SDS011;65772;51.096;17.006;2023-06-01T03:00:17;7.30;;;4.20;;
76818;SDS011;65772;51.096;17.006;2023-06-01T03:02:49;8.50;;;4.40;;
76818;SDS011;65772;51.096;17.006;2023-06-01T03:05:21;7.90;;;4.10;;
76818;SDS011;65772;51.096;17.006;2023-06-01T03:10:40;9.60;;;4.30;;
76818;SDS011;65772;51.096;17.006;2023-06-01T03:13:14;7.70;;;4.40;;
76818;SDS011;65772;51.096;17.006;2023-06-01T03:15:45;9.10;;;4.60;;
76818;SDS011;65772;51.096;17.006;2023-06-01T03:18:16;7.40;;;3.90;;
76818;SDS011;65772;51.096;17.006;2023-06-01T03:20:47;10.00;;;4.20;;
76818;SDS011;65772;51.096;17.006;2023-06-01T03:23:18;9.20;;;3.90;;
76818;SDS011;65772;51.096;17.006;2023-06-01T03:25:49;8.20;;;3.70;;
76818;SDS011;65772;51.096;17.006;2023-06-01T03:28:19;8.70;;;3.90;;
76818;SDS011;65772;51.096;17.006;2023-06-01T03:30:50;7.90;;;4.10;;
76818;SDS011;65772;51.096;17.006;2023-06-01T03:33:21;8.90;;;3.60;;
76818;SDS011;65772;51.096;17.006;2023-06-01T03:35:52;7.70;;;3.50;;
76818;SDS011;65772;51.096;17.006;2023-06-01T03:38:24;7.80;;;3.90;;
76818;SDS011;65772;51.096;17.006;2023-06-01T03:40:54;7.80;;;3.80;;
76818;SDS011;65772;51.096;17.006;2023-06-01T03:43:25;7.40;;;4.10;;
76818;SDS011;65772;51.096;17.006;2023-06-01T03:45:55;8.10;;;4.40;;
76818;SDS011;65772;51.096;17.006;2023-06-01T03:48:26;8.30;;;3.60;;
76818;SDS011;65772;51.096;17.006;2023-06-01T03:50:56;8.10;;;4.10;;
76818;SDS011;65772;51.096;17.006;2023-06-01T03:53:28;8.10;;;4.00;;
76818;SDS011;65772;51.096;17.006;2023-06-01T03:58:31;6.60;;;3.70;;
76818;SDS011;65772;51.096;17.006;2023-06-01T04:01:02;7.80;;;4.00;;
76818;SDS011;65772;51.096;17.006;2023-06-01T04:03:34;8.60;;;4.10;;
76818;SDS011;65772;51.096;17.006;2023-06-01T04:06:06;9.00;;;4.00;;
76818;SDS011;65772;51.096;17.006;2023-06-01T04:08:43;9.40;;;4.10;;
76818;SDS011;65772;51.096;17.006;2023-06-01T04:11:17;7.30;;;4.30;;
76818;SDS011;65772;51.096;17.006;2023-06-01T04:13:48;9.60;;;4.50;;
76818;SDS011;65772;51.096;17.006;2023-06-01T04:16:20;10.90;;;4.60;;
76818;SDS011;65772;51.096;17.006;2023-06-01T04:18:51;9.10;;;4.30;;
76818;SDS011;65772;51.096;17.006;2023-06-01T04:21:27;11.80;;;4.40;;
76818;SDS011;65772;51.096;17.006;2023-06-01T04:23:58;11.10;;;4.50;;
76818;SDS011;65772;51.096;17.006;2023-06-01T04:26:28;8.40;;;3.70;;
76818;SDS011;65772;51.096;17.006;2023-06-01T04:29:00;13.00;;;4.00;;
76818;SDS011;65772;51.096;17.006;2023-06-01T04:31:31;8.50;;;4.10;;
76818;SDS011;65772;51.096;17.006;2023-06-01T04:34:02;11.40;;;4.50;;
76818;SDS011;65772;51.096;17.006;2023-06-01T04:36:35;11.00;;;4.10;;
76818;SDS011;65772;51.096;17.006;2023-06-01T04:39:07;8.30;;;3.70;;
76818;SDS011;65772;51.096;17.006;2023-06-01T04:41:38;12.90;;;4.20;;
76818;SDS011;65772;51.096;17.006;2023-06-01T04:44:09;9.20;;;4.00;;
76818;SDS011;65772;51.096;17.006;2023-06-01T04:46:41;10.00;;;4.20;;
76818;SDS011;65772;51.096;17.006;2023-06-01T04:49:12;10.80;;;4.20;;
76818;SDS011;65772;51.096;17.006;2023-06-01T04:51:43;10.50;;;3.90;;
76818;SDS011;65772;51.096;17.006;2023-06-01T04:54:13;9.70;;;3.90;;
76818;SDS011;65772;51.096;17.006;2023-06-01T04:56:46;9.00;;;3.90;;
76818;SDS011;65772;51.096;17.006;2023-06-01T04:59:17;8.90;;;3.80;;
76818;SDS011;65772;51.096;17.006;2023-06-01T05:01:49;10.90;;;3.80;;
76818;SDS011;65772;51.096;17.006;2023-06-01T05:04:20;9.00;;;3.90;;
76818;SDS011;65772;51.096;17.006;2023-06-01T05:06:51;8.40;;;3.90;;
76818;SDS011;65772;51.096;17.006;2023-06-01T05:09:22;10.50;;;3.60;;
76818;SDS011;65772;51.096;17.006;2023-06-01T05:11:53;12.10;;;4.30;;
76818;SDS011;65772;51.096;17.006;2023-06-01T05:14:23;8.30;;;3.90;;
76818;SDS011;65772;51.096;17.006;2023-06-01T05:16:54;8.00;;;3.70;;
76818;SDS011;65772;51.096;17.006;2023-06-01T05:19:25;9.70;;;4.30;;
76818;SDS011;65772;51.096;17.006;2023-06-01T05:21:56;10.10;;;3.80;;
76818;SDS011;65772;51.096;17.006;2023-06-01T05:24:27;8.70;;;4.30;;
76818;SDS011;65772;51.096;17.006;2023-06-01T05:26:57;12.10;;;4.30;;
76818;SDS011;65772;51.096;17.006;2023-06-01T05:29:28;10.60;;;4.00;;
76818;SDS011;65772;51.096;17.006;2023-06-01T05:31:58;8.10;;;3.70;;
76818;SDS011;65772;51.096;17.006;2023-06-01T05:34:29;10.20;;;4.00;;
76818;SDS011;65772;51.096;17.006;2023-06-01T05:37:00;7.90;;;4.10;;
76818;SDS011;65772;51.096;17.006;2023-06-01T05:39:30;10.70;;;3.60;;
76818;SDS011;65772;51.096;17.006;2023-06-01T05:42:02;12.60;;;4.10;;
76818;SDS011;65772;51.096;17.006;2023-06-01T05:44:37;8.00;;;3.60;;
76818;SDS011;65772;51.096;17.006;2023-06-01T05:47:08;8.30;;;3.50;;
76818;SDS011;65772;51.096;17.006;2023-06-01T05:49:38;10.50;;;4.00;;
76818;SDS011;65772;51.096;17.006;2023-06-01T05:52:09;12.70;;;4.20;;
76818;SDS011;65772;51.096;17.006;2023-06-01T05:54:42;9.60;;;3.90;;
76818;SDS011;65772;51.096;17.006;2023-06-01T05:57:12;10.10;;;4.20;;
76818;SDS011;65772;51.096;17.006;2023-06-01T05:59:43;10.00;;;4.50;;
76818;SDS011;65772;51.096;17.006;2023-06-01T06:02:14;12.30;;;4.50;;
76818;SDS011;65772;51.096;17.006;2023-06-01T06:04:45;9.40;;;4.40;;
76818;SDS011;65772;51.096;17.006;2023-06-01T06:07:16;12.20;;;3.90;;
76818;SDS011;65772;51.096;17.006;2023-06-01T06:09:46;13.30;;;4.40;;
76818;SDS011;65772;51.096;17.006;2023-06-01T06:12:17;8.10;;;3.70;;
76818;SDS011;65772;51.096;17.006;2023-06-01T06:14:48;12.50;;;4.20;;
76818;SDS011;65772;51.096;17.006;2023-06-01T06:17:18;10.20;;;4.20;;
76818;SDS011;65772;51.096;17.006;2023-06-01T06:19:49;11.20;;;4.20;;
76818;SDS011;65772;51.096;17.006;2023-06-01T06:22:19;10.00;;;3.30;;
76818;SDS011;65772;51.096;17.006;2023-06-01T06:24:50;9.10;;;3.30;;
76818;SDS011;65772;51.096;17.006;2023-06-01T06:27:21;7.50;;;2.80;;
76818;SDS011;65772;51.096;17.006;2023-06-01T06:29:51;8.90;;;3.30;;
76818;SDS011;65772;51.096;17.006;2023-06-01T06:32:22;9.70;;;3.30;;
76818;SDS011;65772;51.096;17.006;2023-06-01T06:34:52;8.90;;;2.90;;
76818;SDS011;65772;51.096;17.006;2023-06-01T06:37:23;9.10;;;4.10;;
76818;SDS011;65772;51.096;17.006;2023-06-01T06:39:53;7.80;;;3.50;;
76818;SDS011;65772;51.096;17.006;2023-06-01T06:42:24;9.10;;;3.20;;
76818;SDS011;65772;51.096;17.006;2023-06-01T06:44:55;6.90;;;3.10;;
76818;SDS011;65772;51.096;17.006;2023-06-01T06:47:25;6.20;;;2.90;;
76818;SDS011;65772;51.096;17.006;2023-06-01T06:49:56;6.30;;;2.60;;
76818;SDS011;65772;51.096;17.006;2023-06-01T06:52:27;6.50;;;2.60;;
76818;SDS011;65772;51.096;17.006;2023-06-01T06:54:58;6.40;;;3.20;;
76818;SDS011;65772;51.096;17.006;2023-06-01T06:57:28;6.20;;;2.70;;
76818;SDS011;65772;51.096;17.006;2023-06-01T06:59:59;6.50;;;2.80;;
76818;SDS011;65772;51.096;17.006;2023-06-01T07:02:33;9.60;;;3.30;;
76818;SDS011;65772;51.096;17.006;2023-06-01T07:05:04;6.20;;;2.80;;
76818;SDS011;65772;51.096;17.006;2023-06-01T07:07:36;6.20;;;3.00;;
76818;SDS011;65772;51.096;17.006;2023-06-01T07:10:08;8.10;;;2.90;;
76818;SDS011;65772;51.096;17.006;2023-06-01T07:12:39;11.90;;;2.80;;
76818;SDS011;65772;51.096;17.006;2023-06-01T07:15:10;8.10;;;3.00;;
76818;SDS011;65772;51.096;17.006;2023-06-01T07:17:40;8.10;;;3.50;;
76818;SDS011;65772;51.096;17.006;2023-06-01T07:20:11;8.00;;;3.00;;
76818;SDS011;65772;51.096;17.006;2023-06-01T07:22:42;9.20;;;2.90;;
76818;SDS011;65772;51.096;17.006;2023-06-01T07:25:12;7.50;;;2.60;;
76818;SDS011;65772;51.096;17.006;2023-06-01T07:27:43;6.10;;;2.80;;
76818;SDS011;65772;51.096;17.006;2023-06-01T07:30:15;5.40;;;2.50;;
76818;SDS011;65772;51.096;17.006;2023-06-01T07:32:46;6.90;;;2.40;;
76818;SDS011;65772;51.096;17.006;2023-06-01T07:35:17;5.80;;;2.50;;
76818;SDS011;65772;51.096;17.006;2023-06-01T07:37:47;7.90;;;2.80;;
76818;SDS011;65772;51.096;17.006;2023-06-01T07:40:18;7.30;;;2.80;;
76818;SDS011;65772;51.096;17.006;2023-06-01T07:42:49;7.30;;;3.20;;
76818;SDS011;65772;51.096;17.006;2023-06-01T07:45:20;7.50;;;2.90;;
76818;SDS011;65772;51.096;17.006;2023-06-01T07:47:51;7.50;;;2.80;;
76818;SDS011;65772;51.096;17.006;2023-06-01T07:50:22;7.60;;;3.20;;
76818;SDS011;65772;51.096;17.006;2023-06-01T07:52:56;7.60;;;3.50;;
76818;SDS011;65772;51.096;17.006;2023-06-01T07:55:26;7.30;;;2.90;;
76818;SDS011;65772;51.096;17.006;2023-06-01T07:57:57;6.50;;;3.10;;
76818;SDS011;65772;51.096;17.006;2023-06-01T08:00:28;6.30;;;2.70;;
76818;SDS011;65772;51.096;17.006;2023-06-01T08:02:59;7.10;;;2.80;;
76818;SDS011;65772;51.096;17.006;2023-06-01T08:05:35;7.00;;;2.80;;
76818;SDS011;65772;51.096;17.006;2023-06-01T08:08:06;5.20;;;2.40;;
76818;SDS011;65772;51.096;17.006;2023-06-01T08:10:37;5.90;;;2.50;;
76818;SDS011;65772;51.096;17.006;2023-06-01T08:13:08;9.80;;;3.50;;
76818;SDS011;65772;51.096;17.006;2023-06-01T08:15:38;6.80;;;2.40;;
76818;SDS011;65772;51.096;17.006;2023-06-01T08:18:10;6.20;;;2.60;;
76818;SDS011;65772;51.096;17.006;2023-06-01T08:20:42;6.80;;;2.40;;
76818;SDS011;65772;51.096;17.006;2023-06-01T08:23:13;8.90;;;2.60;;
76818;SDS011;65772;51.096;17.006;2023-06-01T08:25:45;12.90;;;6.10;;
76818;SDS011;65772;51.096;17.006;2023-06-01T08:28:16;8.90;;;2.50;;
76818;SDS011;65772;51.096;17.006;2023-06-01T08:30:46;5.00;;;2.20;;
76818;SDS011;65772;51.096;17.006;2023-06-01T08:33:17;5.30;;;2.40;;
76818;SDS011;65772;51.096;17.006;2023-06-01T08:35:48;5.30;;;2.10;;
76818;SDS011;65772;51.096;17.006;2023-06-01T08:38:18;4.20;;;2.00;;
76818;SDS011;65772;51.096;17.006;2023-06-01T08:40:49;3.70;;;1.90;;
76818;SDS011;65772;51.096;17.006;2023-06-01T08:43:20;3.60;;;2.00;;
76818;SDS011;65772;51.096;17.006;2023-06-01T08:45:55;6.50;;;2.20;;
76818;SDS011;65772;51.096;17.006;2023-06-01T08:48:29;8.10;;;1.90;;
76818;SDS011;65772;51.096;17.006;2023-06-01T08:51:02;3.90;;;1.90;;
76818;SDS011;65772;51.096;17.006;2023-06-01T08:53:33;4.30;;;1.80;;
76818;SDS011;65772;51.096;17.006;2023-06-01T08:56:10;4.90;;;1.70;;
76818;SDS011;65772;51.096;17.006;2023-06-01T08:58:40;4.60;;;1.60;;
76818;SDS011;65772;51.096;17.006;2023-06-01T09:01:13;3.50;;;1.90;;
76818;SDS011;65772;51.096;17.006;2023-06-01T09:03:49;6.40;;;1.70;;
76818;SDS011;65772;51.096;17.006;2023-06-01T09:06:20;7.70;;;2.00;;
76818;SDS011;65772;51.096;17.006;2023-06-01T09:08:51;4.60;;;1.80;;
76818;SDS011;65772;51.096;17.006;2023-06-01T09:11:21;6.10;;;1.80;;
76818;SDS011;65772;51.096;17.006;2023-06-01T09:13:56;5.70;;;2.10;;
76818;SDS011;65772;51.096;17.006;2023-06-01T09:16:36;6.10;;;2.40;;
76818;SDS011;65772;51.096;17.006;2023-06-01T09:19:07;4.50;;;2.30;;
76818;SDS011;65772;51.096;17.006;2023-06-01T09:21:38;4.60;;;1.70;;
76818;SDS011;65772;51.096;17.006;2023-06-01T09:24:18;3.60;;;1.50;;
76818;SDS011;65772;51.096;17.006;2023-06-01T09:26:50;3.50;;;1.40;;
76818;SDS011;65772;51.096;17.006;2023-06-01T09:29:30;3.60;;;1.70;;
76818;SDS011;65772;51.096;17.006;2023-06-01T09:32:01;4.40;;;1.90;;
76818;SDS011;65772;51.096;17.006;2023-06-01T09:34:33;7.40;;;1.80;;
76818;SDS011;65772;51.096;17.006;2023-06-01T09:37:14;4.10;;;1.70;;
76818;SDS011;65772;51.096;17.006;2023-06-01T09:39:45;5.60;;;1.60;;
76818;SDS011;65772;51.096;17.006;2023-06-01T09:42:16;6.10;;;1.60;;
76818;SDS011;65772;51.096;17.006;2023-06-01T09:45:01;4.30;;;1.80;;
76818;SDS011;65772;51.096;17.006;2023-06-01T09:47:44;5.20;;;1.90;;
76818;SDS011;65772;51.096;17.006;2023-06-01T09:53:03;8.80;;;1.90;;
76818;SDS011;65772;51.096;17.006;2023-06-01T09:55:34;6.00;;;1.90;;
76818;SDS011;65772;51.096;17.006;2023-06-01T09:58:20;7.40;;;1.80;;
76818;SDS011;65772;51.096;17.006;2023-06-01T10:00:51;5.80;;;1.70;;
76818;SDS011;65772;51.096;17.006;2023-06-01T10:03:22;4.80;;;1.80;;
76818;SDS011;65772;51.096;17.006;2023-06-01T10:05:55;6.90;;;2.10;;
76818;SDS011;65772;51.096;17.006;2023-06-01T10:08:26;5.40;;;1.70;;
76818;SDS011;65772;51.096;17.006;2023-06-01T10:10:58;5.20;;;2.30;;
76818;SDS011;65772;51.096;17.006;2023-06-01T10:13:29;4.00;;;1.60;;
76818;SDS011;65772;51.096;17.006;2023-06-01T10:16:00;4.90;;;1.70;;
76818;SDS011;65772;51.096;17.006;2023-06-01T10:18:31;3.80;;;1.70;;
76818;SDS011;65772;51.096;17.006;2023-06-01T10:21:02;5.20;;;1.70;;
76818;SDS011;65772;51.096;17.006;2023-06-01T10:23:35;5.40;;;2.10;;
76818;SDS011;65772;51.096;17.006;2023-06-01T10:26:06;5.10;;;1.60;;
76818;SDS011;65772;51.096;17.006;2023-06-01T10:28:43;5.00;;;1.60;;
76818;SDS011;65772;51.096;17.006;2023-06-01T10:31:35;5.70;;;1.70;;
76818;SDS011;65772;51.096;17.006;2023-06-01T10:34:07;3.40;;;1.60;;
76818;SDS011;65772;51.096;17.006;2023-06-01T10:39:52;3.90;;;1.90;;
76818;SDS011;65772;51.096;17.006;2023-06-01T10:42:38;5.00;;;2.40;;
76818;SDS011;65772;51.096;17.006;2023-06-01T10:47:52;7.30;;;2.70;;
76818;SDS011;65772;51.096;17.006;2023-06-01T10:50:22;5.20;;;1.70;;
76818;SDS011;65772;51.096;17.006;2023-06-01T10:52:54;4.30;;;1.60;;
76818;SDS011;65772;51.096;17.006;2023-06-01T10:55:26;4.00;;;1.60;;
76818;SDS011;65772;51.096;17.006;2023-06-01T11:00:51;4.80;;;1.60;;
76818;SDS011;65772;51.096;17.006;2023-06-01T11:06:24;4.00;;;1.80;;
76818;SDS011;65772;51.096;17.006;2023-06-01T11:08:59;5.40;;;2.10;;
76818;SDS011;65772;51.096;17.006;2023-06-01T11:14:28;6.60;;;2.00;;
76818;SDS011;65772;51.096;17.006;2023-06-01T11:19:58;6.00;;;2.00;;
76818;SDS011;65772;51.096;17.006;2023-06-01T11:22:39;4.60;;;2.00;;
76818;SDS011;65772;51.096;17.006;2023-06-01T11:25:10;4.20;;;1.80;;
76818;SDS011;65772;51.096;17.006;2023-06-01T11:27:45;4.20;;;1.90;;
76818;SDS011;65772;51.096;17.006;2023-06-01T11:30:19;7.60;;;2.30;;
76818;SDS011;65772;51.096;17.006;2023-06-01T11:32:50;6.00;;;1.70;;
76818;SDS011;65772;51.096;17.006;2023-06-01T11:35:23;3.80;;;1.90;;
76818;SDS011;65772;51.096;17.006;2023-06-01T11:37:56;5.00;;;2.00;;
76818;SDS011;65772;51.096;17.006;2023-06-01T11:40:27;5.50;;;2.00;;
76818;SDS011;65772;51.096;17.006;2023-06-01T11:43:05;5.60;;;2.10;;
76818;SDS011;65772;51.096;17.006;2023-06-01T11:45:35;8.00;;;2.20;;
76818;SDS011;65772;51.096;17.006;2023-06-01T11:48:12;5.50;;;2.30;;
76818;SDS011;65772;51.096;17.006;2023-06-01T11:50:47;5.60;;;2.00;;
76818;SDS011;65772;51.096;17.006;2023-06-01T11:53:17;6.40;;;2.30;;
76818;SDS011;65772;51.096;17.006;2023-06-01T11:55:51;5.40;;;2.00;;
76818;SDS011;65772;51.096;17.006;2023-06-01T11:58:23;6.20;;;2.50;;
76818;SDS011;65772;51.096;17.006;2023-06-01T12:00:55;7.10;;;2.20;;
76818;SDS011;65772;51.096;17.006;2023-06-01T12:03:27;5.50;;;1.80;;
76818;SDS011;65772;51.096;17.006;2023-06-01T12:05:59;6.60;;;2.10;;
76818;SDS011;65772;51.096;17.006;2023-06-01T12:08:30;8.60;;;2.00;;
76818;SDS011;65772;51.096;17.006;2023-06-01T12:11:01;5.30;;;2.30;;
76818;SDS011;65772;51.096;17.006;2023-06-01T12:13:32;5.00;;;2.40;;
76818;SDS011;65772;51.096;17.006;2023-06-01T12:16:03;7.00;;;1.90;;
76818;SDS011;65772;51.096;17.006;2023-06-01T12:18:48;4.50;;;2.30;;
76818;SDS011;65772;51.096;17.006;2023-06-01T12:21:19;5.20;;;2.00;;
76818;SDS011;65772;51.096;17.006;2023-06-01T12:23:50;5.40;;;2.20;;
76818;SDS011;65772;51.096;17.006;2023-06-01T12:26:21;5.40;;;2.00;;
76818;SDS011;65772;51.096;17.006;2023-06-01T12:29:03;4.00;;;2.10;;
76818;SDS011;65772;51.096;17.006;2023-06-01T12:31:34;5.30;;;2.20;;
76818;SDS011;65772;51.096;17.006;2023-06-01T12:34:14;5.20;;;2.00;;
76818;SDS011;65772;51.096;17.006;2023-06-01T12:36:46;8.60;;;2.50;;
76818;SDS011;65772;51.096;17.006;2023-06-01T12:39:24;8.40;;;2.30;;
76818;SDS011;65772;51.096;17.006;2023-06-01T12:42:05;7.40;;;2.40;;
76818;SDS011;65772;51.096;17.006;2023-06-01T12:44:38;5.50;;;2.40;;
76818;SDS011;65772;51.096;17.006;2023-06-01T12:47:09;5.30;;;2.10;;
76818;SDS011;65772;51.096;17.006;2023-06-01T12:49:40;5.20;;;2.30;;
76818;SDS011;65772;51.096;17.006;2023-06-01T12:52:29;3.90;;;1.90;;
76818;SDS011;65772;51.096;17.006;2023-06-01T12:55:00;4.60;;;2.30;;
76818;SDS011;65772;51.096;17.006;2023-06-01T12:57:32;4.30;;;2.10;;
76818;SDS011;65772;51.096;17.006;2023-06-01T13:00:03;8.30;;;2.20;;
76818;SDS011;65772;51.096;17.006;2023-06-01T13:02:35;4.90;;;2.30;;
76818;SDS011;65772;51.096;17.006;2023-06-01T13:05:07;4.50;;;2.10;;
76818;SDS011;65772;51.096;17.006;2023-06-01T13:07:37;4.50;;;2.30;;
76818;SDS011;65772;51.096;17.006;2023-06-01T13:10:08;6.50;;;2.70;;
76818;SDS011;65772;51.096;17.006;2023-06-01T13:12:41;7.10;;;2.60;;
76818;SDS011;65772;51.096;17.006;2023-06-01T13:15:12;4.60;;;2.40;;
76818;SDS011;65772;51.096;17.006;2023-06-01T13:17:42;8.00;;;2.40;;
76818;SDS011;65772;51.096;17.006;2023-06-01T13:20:13;4.80;;;2.40;;
76818;SDS011;65772;51.096;17.006;2023-06-01T13:22:44;6.70;;;2.50;;
76818;SDS011;65772;51.096;17.006;2023-06-01T13:25:15;4.40;;;2.30;;
76818;SDS011;65772;51.096;17.006;2023-06-01T13:27:46;5.60;;;2.40;;
76818;SDS011;65772;51.096;17.006;2023-06-01T13:30:17;6.10;;;2.20;;
76818;SDS011;65772;51.096;17.006;2023-06-01T13:32:47;5.20;;;2.40;;
76818;SDS011;65772;51.096;17.006;2023-06-01T13:35:18;5.90;;;2.00;;
76818;SDS011;65772;51.096;17.006;2023-06-01T13:37:49;6.50;;;2.00;;
76818;SDS011;65772;51.096;17.006;2023-06-01T13:40:20;6.50;;;2.50;;
76818;SDS011;65772;51.096;17.006;2023-06-01T13:42:52;5.20;;;2.60;;
76818;SDS011;65772;51.096;17.006;2023-06-01T13:45:23;6.70;;;3.20;;
76818;SDS011;65772;51.096;17.006;2023-06-01T13:47:54;8.90;;;3.80;;
76818;SDS011;65772;51.096;17.006;2023-06-01T13:50:26;6.20;;;2.40;;
76818;SDS011;65772;51.096;17.006;2023-06-01T13:52:57;9.40;;;2.50;;
76818;SDS011;65772;51.096;17.006;2023-06-01T13:55:28;5.90;;;2.60;;
76818;SDS011;65772;51.096;17.006;2023-06-01T13:57:59;6.20;;;2.40;;
76818;SDS011;65772;51.096;17.006;2023-06-01T14:00:29;7.80;;;2.40;;
76818;SDS011;65772;51.096;17.006;2023-06-01T14:03:00;6.30;;;2.60;;
76818;SDS011;65772;51.096;17.006;2023-06-01T14:05:31;6.70;;;2.30;;
76818;SDS011;65772;51.096;17.006;2023-06-01T14:08:20;6.40;;;2.30;;
76818;SDS011;65772;51.096;17.006;2023-06-01T14:10:51;6.10;;;2.70;;
76818;SDS011;65772;51.096;17.006;2023-06-01T14:13:21;6.30;;;2.40;;
76818;SDS011;65772;51.096;17.006;2023-06-01T14:15:52;6.30;;;2.60;;
76818;SDS011;65772;51.096;17.006;2023-06-01T14:20:52;4.80;;;2.30;;
76818;SDS011;65772;51.096;17.006;2023-06-01T14:23:23;5.90;;;2.50;;
76818;SDS011;65772;51.096;17.006;2023-06-01T14:25:53;6.00;;;2.20;;
76818;SDS011;65772;51.096;17.006;2023-06-01T14:28:24;5.00;;;2.40;;
76818;SDS011;65772;51.096;17.006;2023-06-01T14:30:55;5.10;;;2.50;;
76818;SDS011;65772;51.096;17.006;2023-06-01T14:33:25;5.40;;;2.30;;
76818;SDS011;65772;51.096;17.006;2023-06-01T14:35:56;6.40;;;2.50;;
76818;SDS011;65772;51.096;17.006;2023-06-01T14:38:28;7.30;;;3.20;;
76818;SDS011;65772;51.096;17.006;2023-06-01T14:40:58;5.00;;;2.70;;
76818;SDS011;65772;51.096;17.006;2023-06-01T14:43:29;6.10;;;2.00;;
76818;SDS011;65772;51.096;17.006;2023-06-01T14:46:00;6.00;;;2.30;;
76818;SDS011;65772;51.096;17.006;2023-06-01T14:48:30;6.10;;;2.30;;
76818;SDS011;65772;51.096;17.006;2023-06-01T14:51:01;6.50;;;2.50;;
76818;SDS011;65772;51.096;17.006;2023-06-01T14:53:32;4.10;;;2.10;;
76818;SDS011;65772;51.096;17.006;2023-06-01T14:56:02;4.40;;;2.30;;
76818;SDS011;65772;51.096;17.006;2023-06-01T14:58:33;4.80;;;2.40;;
76818;SDS011;65772;51.096;17.006;2023-06-01T15:01:04;4.50;;;2.30;;
76818;SDS011;65772;51.096;17.006;2023-06-01T15:03:34;5.50;;;2.30;;
76818;SDS011;65772;51.096;17.006;2023-06-01T15:06:05;5.40;;;2.20;;
76818;SDS011;65772;51.096;17.006;2023-06-01T15:08:36;3.90;;;2.10;;
76818;SDS011;65772;51.096;17.006;2023-06-01T15:11:07;5.90;;;2.60;;
76818;SDS011;65772;51.096;17.006;2023-06-01T15:13:41;4.60;;;2.50;;
76818;SDS011;65772;51.096;17.006;2023-06-01T15:16:11;3.50;;;2.00;;
76818;SDS011;65772;51.096;17.006;2023-06-01T15:18:43;5.70;;;2.60;;
76818;SDS011;65772;51.096;17.006;2023-06-01T15:21:14;5.50;;;2.30;;
76818;SDS011;65772;51.096;17.006;2023-06-01T15:23:44;7.00;;;2.40;;
76818;SDS011;65772;51.096;17.006;2023-06-01T15:26:15;6.50;;;2.20;;
76818;SDS011;65772;51.096;17.006;2023-06-01T15:28:46;5.60;;;2.20;;
76818;SDS011;65772;51.096;17.006;2023-06-01T15:31:18;9.00;;;2.50;;
76818;SDS011;65772;51.096;17.006;2023-06-01T15:33:50;6.90;;;2.60;;
76818;SDS011;65772;51.096;17.006;2023-06-01T15:36:20;4.50;;;2.50;;
76818;SDS011;65772;51.096;17.006;2023-06-01T15:38:51;6.20;;;2.30;;
76818;SDS011;65772;51.096;17.006;2023-06-01T15:41:21;6.70;;;3.30;;